San Francisco, CA

7:59 PM PDT on March 30, 2015 (GMT -0700)
San Francisco International | | Change Station
CLOSE
Current Station
Airport
Location: San Francisco,
Elevation: 16 ft
Nearby Weather Stations

Elev 16 ft 37.62 °N, 122.37 °W | Updated 1 hour ago

Mostly Cloudy
Mostly Cloudy
57 °F
Feels Like 57 °F
N
24
Wind Variable Wind from West
Gusts 32 mph

Today
High -- | Low -- °F
--% Chance of Precip.
Yesterday
High -- | Low -- °F
Precip. -- in
6:58 AM 7:30 PM
Waxing Gibbous, 84% visible
Pressure 30.06 in
Visibility 10.0 miles
Clouds Few 1400 ft
Mostly Cloudy 18000 ft
Dew Point 52 °F
Humidity 83%
Rainfall 0.00 in
Snow Depth Not available.
UV 0 out of 12
Pollen 11.80 out of 12
Air Quality Not available.
Flu Activity Not available.
METAR KSFO 310156Z 26021G28KT 10SM FEW014 BKN180 14/11 A3006 RMK AO2 PK WND 27034/0104 SLP178 T01390111 $

More Conditions Fewer Conditions

Pressure 30.06 in
Visibility 10.0 miles
Clouds Few 1400 ft
Mostly Cloudy 18000 ft
Dew Point 52 °F
Humidity 83%
Rainfall 0.00 in
Snow Depth Not available.
UV 0 out of 12
Pollen 11.80 out of 12
Air Quality Not available.
Flu Activity Not available.
METAR KSFO 310156Z 26021G28KT 10SM FEW014 BKN180 14/11 A3006 RMK AO2 PK WND 27034/0104 SLP178 T01390111 $

More Conditions Fewer Conditions

10-Day Weather Forecast

Almanac

Astronomy

Mar. 30, 2015 Rise Set
Actual Time
Civil Twilight
Nautical Twilight
Astronomical Twilight
Moon
Length of Visible Light
Length of Day
Tomorrow will be .
, % of the Moon is Illuminated

Today's Extremes

State Highs State Lows

Community

WunderPhotos

Upload Photos

1,809,675 photos uploaded!

WunderBlogs® & News

Nearby

Air Quality

  Air Quality AQ Index Pollutant
Not available.

Snow Depth

Station Depth Elevation

Earthquake Activity

City Distance Mag. Time & Date
Minimum magnitude displayed is 2.5.

Coastal Water Temperatures

Place Temperature

Stations

Nearby Weather Stations

Station Location Temp. Windchill Dew Point Humidity Wind Precip. Elev Updated Type